createdAt,value
2023-05-05T00:01:42.424Z,100606.81
2023-05-05T00:06:43.897Z,100600.50
2023-05-05T00:11:45.381Z,100602.97
2023-05-05T00:16:47.287Z,100603.72
2023-05-05T00:21:48.736Z,100601.16
2023-05-05T00:26:51.115Z,100596.94
2023-05-05T00:31:52.614Z,100600.84
2023-05-05T00:36:54.047Z,100594.19
2023-05-05T00:41:55.467Z,100597.41
2023-05-05T00:46:56.951Z,100595.44
2023-05-05T00:51:59.053Z,100582.38
2023-05-05T00:57:02.184Z,100588.38
2023-05-05T01:02:03.749Z,100583.94
2023-05-05T01:07:22.214Z,100585.53
2023-05-05T01:13:01.860Z,100579.13
2023-05-05T01:18:25.119Z,100579.13
2023-05-05T01:24:04.974Z,100579.59
2023-05-05T01:29:38.481Z,100556.41
2023-05-05T01:34:56.130Z,100550.47
2023-05-05T01:40:06.202Z,100557.16
2023-05-05T01:45:11.334Z,100559.34
2023-05-05T01:50:15.985Z,100542.97
2023-05-05T01:55:19.618Z,100560.03
2023-05-05T02:00:22.648Z,100562.22
2023-05-05T02:05:26.593Z,100554.88
2023-05-05T02:10:29.206Z,100559.25
2023-05-05T02:15:31.919Z,100560.09
2023-05-05T02:20:33.907Z,100553.22
2023-05-05T02:25:41.968Z,100550.75
2023-05-05T02:30:43.968Z,100554.00
2023-05-05T02:35:47.047Z,100554.47
2023-05-05T02:40:51.138Z,100545.09
2023-05-05T02:45:52.596Z,100552.50
2023-05-05T02:50:54.020Z,100550.06
2023-05-05T02:56:06.077Z,100543.25
2023-05-05T03:01:16.958Z,100552.84
2023-05-05T03:06:21.355Z,100559.25
2023-05-05T03:11:29.121Z,100559.72
2023-05-05T03:16:33.528Z,100557.97
2023-05-05T03:21:35.368Z,100564.34
2023-05-05T03:26:36.775Z,100573.28
2023-05-05T03:31:38.332Z,100576.34
2023-05-05T03:36:40.214Z,100568.53
2023-05-05T03:41:41.638Z,100577.63
2023-05-05T03:46:43.138Z,100571.91
2023-05-05T03:51:44.556Z,100579.13
2023-05-05T03:56:45.955Z,100578.28
2023-05-05T04:01:48.966Z,100584.22
2023-05-05T04:06:50.369Z,100587.03
2023-05-05T04:11:52.045Z,100576.56
2023-05-05T04:16:53.513Z,100576.34
2023-05-05T04:21:54.965Z,100580.00
2023-05-05T04:26:56.427Z,100581.97
2023-05-05T04:31:57.868Z,100579.34
2023-05-05T04:36:59.329Z,100590.56
2023-05-05T04:42:00.738Z,100592.09
2023-05-05T04:47:02.466Z,100594.22
2023-05-05T04:52:03.938Z,100600.16
2023-05-05T04:57:05.416Z,100597.50
2023-05-05T05:02:06.945Z,100599.53
2023-05-05T05:07:09.273Z,100603.81
2023-05-05T05:12:10.786Z,100604.56
2023-05-05T05:17:12.198Z,100602.88
2023-05-05T05:22:13.654Z,100597.25
2023-05-05T05:27:15.089Z,100607.09
2023-05-05T05:32:16.741Z,100608.19
2023-05-05T05:37:18.201Z,100610.28
2023-05-05T05:42:19.611Z,100624.53
2023-05-05T05:47:21.128Z,100626.22
2023-05-05T05:52:22.544Z,100625.72
2023-05-05T05:57:24.593Z,100626.63
2023-05-05T06:02:27.226Z,100628.06
2023-05-05T06:07:28.747Z,100629.72
2023-05-05T06:12:30.205Z,100639.47
2023-05-05T06:17:31.661Z,100634.19
2023-05-05T06:22:33.066Z,100626.47
2023-05-05T06:27:34.680Z,100623.91
2023-05-05T06:32:36.191Z,100634.00
2023-05-05T06:37:37.803Z,100626.13
2023-05-05T06:42:39.226Z,100622.38
2023-05-05T06:47:42.107Z,100626.22
2023-05-05T06:52:43.545Z,100630.25
2023-05-05T06:57:45.324Z,100630.53
2023-05-05T07:02:47.608Z,100627.78
2023-05-05T07:07:56.440Z,100631.38
2023-05-05T07:12:58.142Z,100630.94
2023-05-05T07:17:59.689Z,100636.06
2023-05-05T07:23:01.341Z,100630.75
2023-05-05T07:28:03.281Z,100628.56
2023-05-05T07:33:04.796Z,100623.28
2023-05-05T07:38:06.928Z,100628.38
2023-05-05T07:43:09.721Z,100616.00
2023-05-05T07:48:11.460Z,100624.72
2023-05-05T07:53:14.979Z,100620.50
2023-05-05T07:58:17.057Z,100633.31
2023-05-05T08:03:20.650Z,100622.06
2023-05-05T08:08:26.880Z,100618.44
2023-05-05T08:13:30.186Z,100620.91
2023-05-05T08:18:31.701Z,100617.56
2023-05-05T08:23:34.710Z,100619.41
2023-05-05T08:28:36.801Z,100628.19
2023-05-05T08:33:38.253Z,100614.34
2023-05-05T08:38:39.685Z,100621.03
2023-05-05T08:43:43.781Z,100621.81
2023-05-05T08:48:46.065Z,100619.47
2023-05-05T08:54:00.908Z,100603.34
2023-05-05T08:59:02.556Z,100612.44
2023-05-05T09:04:04.722Z,100610.53
2023-05-05T09:09:06.660Z,100605.25
2023-05-05T09:14:08.104Z,100600.81
2023-05-05T09:19:09.589Z,100609.34
2023-05-05T09:24:12.587Z,100601.16
2023-05-05T09:29:21.265Z,100598.34
2023-05-05T09:34:22.622Z,100600.75
2023-05-05T09:39:24.429Z,100595.25
2023-05-05T09:44:37.273Z,100598.38
2023-05-05T09:49:39.199Z,100590.78
2023-05-05T09:54:41.303Z,100590.69
2023-05-05T09:59:54.921Z,100581.72
2023-05-05T10:05:12.730Z,100577.94
2023-05-05T10:10:16.505Z,100589.56
2023-05-05T10:15:18.559Z,100582.44
2023-05-05T10:20:21.098Z,100582.44
2023-05-05T10:25:32.908Z,100580.19
2023-05-05T10:30:41.533Z,100586.53
2023-05-05T10:35:44.871Z,100578.25
2023-05-05T10:40:48.153Z,100572.75
2023-05-05T10:45:50.130Z,100577.44
2023-05-05T10:50:56.698Z,100567.63
2023-05-05T10:56:25.298Z,100564.00
2023-05-05T11:01:32.732Z,100565.13
2023-05-05T11:06:34.221Z,100564.75
2023-05-05T11:12:04.376Z,100557.41
2023-05-05T11:17:34.205Z,100545.03
2023-05-05T11:23:05.216Z,100551.50
2023-05-05T11:28:13.604Z,100542.34
2023-05-05T11:33:31.250Z,100527.50
2023-05-05T11:38:46.932Z,100521.41
2023-05-05T11:43:48.424Z,100523.44
2023-05-05T11:48:53.786Z,100526.78
2023-05-05T11:53:56.013Z,100517.47
2023-05-05T11:59:19.078Z,100514.19
2023-05-05T12:04:20.634Z,100512.72
2023-05-05T12:09:23.875Z,100516.75
2023-05-05T12:14:25.954Z,100502.19
2023-05-05T12:19:33.152Z,100499.41
2023-05-05T12:24:34.873Z,100498.47
2023-05-05T12:29:36.917Z,100496.38
2023-05-05T12:34:38.582Z,100499.97
2023-05-05T12:39:40.004Z,100499.41
2023-05-05T12:44:44.012Z,100496.94
2023-05-05T12:49:46.229Z,100491.28
2023-05-05T12:54:55.168Z,100481.03
2023-05-05T12:59:57.935Z,100486.25
2023-05-05T13:04:59.408Z,100484.72
2023-05-05T13:10:10.880Z,100473.63
2023-05-05T13:15:12.973Z,100469.91
2023-05-05T13:20:14.487Z,100459.66
2023-05-05T13:25:15.991Z,100453.09
2023-05-05T13:30:17.433Z,100461.03
2023-05-05T13:35:18.862Z,100458.88
2023-05-05T13:40:20.299Z,100445.75
2023-05-05T13:45:21.744Z,100451.53
2023-05-05T13:50:24.039Z,100434.75
2023-05-05T13:55:25.589Z,100426.22
2023-05-05T14:00:27.809Z,100428.88
2023-05-05T14:05:29.237Z,100429.78
2023-05-05T14:10:31.074Z,100413.00
2023-05-05T14:15:32.899Z,100420.25
2023-05-05T14:20:34.487Z,100407.03
2023-05-05T14:25:35.974Z,100395.72
2023-05-05T14:30:37.415Z,100389.06
2023-05-05T14:35:38.874Z,100398.16
2023-05-05T14:40:40.622Z,100398.72
2023-05-05T14:50:46.268Z,100386.50
2023-05-05T14:55:47.762Z,100385.44
2023-05-05T15:00:49.214Z,100389.91
2023-05-05T15:05:51.102Z,100391.06
2023-05-05T15:10:52.529Z,100383.66
2023-05-05T15:15:53.985Z,100387.63
2023-05-05T15:20:55.425Z,100371.78
2023-05-05T15:25:56.932Z,100377.84
2023-05-05T15:31:01.820Z,100366.09
2023-05-05T15:36:03.397Z,100378.47
2023-05-05T15:41:07.021Z,100376.91
2023-05-05T15:46:08.431Z,100372.47
2023-05-05T15:51:11.843Z,100374.91
2023-05-05T15:56:13.266Z,100366.19
2023-05-05T16:01:14.707Z,100360.69
2023-05-05T16:06:16.213Z,100367.00
2023-05-05T16:11:17.716Z,100362.13
2023-05-05T16:16:19.195Z,100358.22
2023-05-05T16:21:20.656Z,100356.63
2023-05-05T16:26:22.100Z,100355.56
2023-05-05T16:31:23.524Z,100347.47
2023-05-05T16:36:25.014Z,100341.22
2023-05-05T16:41:26.861Z,100346.19
2023-05-05T16:46:28.408Z,100348.25
2023-05-05T16:51:29.989Z,100341.41
2023-05-05T16:56:31.424Z,100336.94
2023-05-05T17:01:34.720Z,100339.75
2023-05-05T17:06:36.441Z,100340.84
2023-05-05T17:11:37.936Z,100348.94
2023-05-05T17:16:39.431Z,100347.78
2023-05-05T17:21:43.131Z,100365.59
2023-05-05T17:26:44.601Z,100356.72
2023-05-05T17:31:46.788Z,100365.09
2023-05-05T17:36:48.240Z,100361.16
2023-05-05T17:41:49.707Z,100368.69
2023-05-05T17:46:51.256Z,100368.16
2023-05-05T17:51:52.708Z,100369.72
2023-05-05T17:56:54.197Z,100361.69
2023-05-05T18:01:55.700Z,100363.88
2023-05-05T18:06:57.469Z,100366.91
2023-05-05T18:11:58.903Z,100375.81
2023-05-05T18:17:00.313Z,100373.00
2023-05-05T18:22:01.740Z,100381.16
2023-05-05T18:27:05.953Z,100384.03
2023-05-05T18:32:07.465Z,100407.00
2023-05-05T18:37:09.017Z,100424.94
2023-05-05T18:42:10.554Z,100409.59
2023-05-05T18:47:12.216Z,100430.28
2023-05-05T18:52:13.706Z,100428.25
2023-05-05T18:57:15.131Z,100434.28
2023-05-05T19:02:17.825Z,100437.53
2023-05-05T19:07:33.925Z,100428.44
2023-05-05T19:12:36.770Z,100432.06
2023-05-05T19:17:38.281Z,100432.44
2023-05-05T19:22:39.824Z,100435.22
2023-05-05T19:27:41.392Z,100431.44
2023-05-05T19:32:42.834Z,100421.16
2023-05-05T19:37:44.257Z,100410.63
2023-05-05T19:42:45.668Z,100413.19
2023-05-05T19:47:47.127Z,100418.38
2023-05-05T19:52:48.559Z,100419.69
2023-05-05T19:57:50.007Z,100411.28
2023-05-05T20:02:51.663Z,100412.72
2023-05-05T20:07:53.179Z,100411.97
2023-05-05T20:12:54.618Z,100406.56
2023-05-05T20:17:56.097Z,100409.63
2023-05-05T20:22:57.546Z,100401.97
2023-05-05T20:27:59.296Z,100397.25
2023-05-05T20:33:00.810Z,100391.66
2023-05-05T20:38:04.664Z,100381.97
2023-05-05T20:43:06.115Z,100376.69
2023-05-05T20:48:09.904Z,100376.25
2023-05-05T20:53:13.837Z,100373.09
2023-05-05T20:58:15.269Z,100373.09
2023-05-05T21:03:16.873Z,100361.94
2023-05-05T21:08:18.365Z,100371.66
2023-05-05T21:13:19.836Z,100371.50
2023-05-05T21:18:21.364Z,100379.28
2023-05-05T21:23:22.805Z,100366.81
2023-05-05T21:28:24.292Z,100361.94
2023-05-05T21:33:25.744Z,100351.63
2023-05-05T21:38:27.257Z,100364.63
2023-05-05T21:43:28.811Z,100363.59
2023-05-05T21:48:31.321Z,100369.41
2023-05-05T21:53:32.803Z,100365.38
2023-05-05T21:58:34.390Z,100370.50
2023-05-05T22:03:36.027Z,100365.22
2023-05-05T22:08:37.506Z,100356.63
2023-05-05T22:13:39.255Z,100375.63
2023-05-05T22:18:40.710Z,100366.75
2023-05-05T22:23:42.157Z,100352.19
2023-05-05T22:28:43.589Z,100350.03
2023-05-05T22:33:45.020Z,100350.91
2023-05-05T22:38:46.528Z,100347.72
2023-05-05T22:43:49.190Z,100346.28
2023-05-05T22:48:52.320Z,100335.59
2023-05-05T22:53:53.729Z,100349.06
2023-05-05T22:58:55.766Z,100349.06
2023-05-05T23:03:57.336Z,100360.59
2023-05-05T23:08:58.769Z,100351.50
2023-05-05T23:14:00.281Z,100353.84
2023-05-05T23:19:01.781Z,100343.22
2023-05-05T23:24:03.356Z,100338.47
2023-05-05T23:29:05.684Z,100333.81
2023-05-05T23:34:07.115Z,100334.47
2023-05-05T23:39:08.772Z,100322.50
2023-05-05T23:44:10.337Z,100320.84
2023-05-05T23:49:11.756Z,100315.38
2023-05-05T23:54:13.173Z,100302.72
2023-05-05T23:59:14.650Z,100299.38
